Time;durP1;ratioP1;P1;durP2;ratioP2;P2;SDS_P1;SDS_P2;PMS_P1;PMS_P2;Temp;Humidity;BMP_temperature;BMP_pressure;BME280_temperature;BME280_humidity;BME280_pressure;Samples;Min_cycle;Max_cycle;Signal;HPM_P1;HPM_P2
2022/12/02 00:00:54;;;;;;;24.45;11.18;;;;;;;-1.45;100.00;99334.19;4203747;28;20132;-75
2022/12/02 00:02:56;;;;;;;27.75;11.32;;;;;;;-1.47;100.00;99330.94;4202143;28;20040;-76
2022/12/02 00:04:58;;;;;;;27.35;12.50;;;;;;;-1.47;100.00;99337.19;4203619;28;20052;-75
2022/12/02 00:06:59;;;;;;;26.13;12.13;;;;;;;-1.45;100.00;99340.44;4202904;28;20179;-75
2022/12/02 00:09:18;;;;;;;24.30;11.02;;;;;;;-1.45;100.00;99329.56;4203429;28;20327;-75
2022/12/02 00:11:26;;;;;;;26.00;11.45;;;;;;;-1.48;100.00;99329.34;4202610;28;20307;-75
2022/12/02 00:13:43;;;;;;;29.65;14.32;;;;;;;-1.51;100.00;99329.88;4202250;28;20044;-75
2022/12/02 00:15:45;;;;;;;26.92;12.25;;;;;;;-1.54;100.00;99328.53;4203190;28;20044;-75
2022/12/02 00:17:46;;;;;;;26.95;11.60;;;;;;;-1.55;100.00;99326.91;4203612;28;20048;-75
2022/12/02 00:19:46;;;;;;;27.52;12.65;;;;;;;-1.58;100.00;99321.22;4202733;28;20044;-74
2022/12/02 00:21:47;;;;;;;25.40;11.00;;;;;;;-1.57;100.00;99325.53;4202517;28;20464;-75
2022/12/02 00:23:47;;;;;;;28.73;13.20;;;;;;;-1.57;100.00;99320.97;4202658;28;20262;-75
2022/12/02 00:25:50;;;;;;;29.77;12.38;;;;;;;-1.60;100.00;99316.06;4203191;28;20117;-75
2022/12/02 00:27:50;;;;;;;21.23;10.70;;;;;;;-1.57;100.00;99311.97;4202818;28;20044;-75
2022/12/02 00:29:51;;;;;;;24.42;11.60;;;;;;;-1.56;100.00;99310.91;4202872;28;20113;-75
2022/12/02 00:31:51;;;;;;;24.48;11.43;;;;;;;-1.56;100.00;99309.00;4203126;28;20095;-75
2022/12/02 00:33:51;;;;;;;28.30;12.23;;;;;;;-1.55;100.00;99313.34;4202086;28;20067;-75
2022/12/02 00:35:52;;;;;;;28.75;12.65;;;;;;;-1.56;100.00;99310.91;4202562;28;20044;-75
2022/12/02 00:37:52;;;;;;;27.63;12.18;;;;;;;-1.58;100.00;99313.06;4203145;28;20052;-75
2022/12/02 00:39:52;;;;;;;27.63;10.85;;;;;;;-1.60;100.00;99316.06;4202526;28;20044;-75
2022/12/02 00:41:53;;;;;;;24.17;12.02;;;;;;;-1.59;100.00;99309.53;4201370;28;20048;-75
2022/12/02 00:46:30;;;;;;;25.85;10.93;;;;;;;-1.57;100.00;99309.25;4202575;28;20089;-75
2022/12/02 00:48:31;;;;;;;26.75;11.82;;;;;;;-1.58;100.00;99296.78;4202431;28;20071;-75
2022/12/02 00:50:31;;;;;;;23.42;11.50;;;;;;;-1.58;100.00;99302.22;4201630;28;20060;-75
2022/12/02 00:52:31;;;;;;;28.52;11.70;;;;;;;-1.61;100.00;99302.78;4201275;28;20080;-75
2022/12/02 00:54:32;;;;;;;27.17;10.88;;;;;;;-1.60;100.00;99304.41;4202049;28;20436;-75
2022/12/02 00:56:32;;;;;;;28.35;11.45;;;;;;;-1.61;100.00;99308.22;4202731;28;20090;-75
2022/12/02 00:58:33;;;;;;;27.38;12.90;;;;;;;-1.56;100.00;99305.47;4203420;28;20391;-75
2022/12/02 01:00:33;;;;;;;27.17;11.48;;;;;;;-1.57;100.00;99310.09;4202473;28;20075;-75
2022/12/02 01:02:33;;;;;;;27.65;12.40;;;;;;;-1.55;100.00;99307.09;4201289;28;20055;-75
2022/12/02 01:04:34;;;;;;;26.13;12.75;;;;;;;-1.58;100.00;99307.63;4203119;28;20391;-75
2022/12/02 01:06:34;;;;;;;28.00;11.43;;;;;;;-1.58;100.00;99302.22;4202607;28;20101;-75
2022/12/02 01:08:34;;;;;;;25.35;11.70;;;;;;;-1.57;100.00;99306.53;4202651;28;20125;-75
2022/12/02 01:10:35;;;;;;;28.77;11.32;;;;;;;-1.60;100.00;99302.50;4203309;28;20044;-75
2022/12/02 01:12:35;;;;;;;26.30;10.25;;;;;;;-1.61;100.00;99297.34;4202177;28;20083;-75
2022/12/02 01:14:35;;;;;;;26.95;11.98;;;;;;;-1.62;100.00;99291.13;4184210;28;20123;-75
2022/12/02 01:16:36;;;;;;;30.75;13.23;;;;;;;-1.64;100.00;99295.22;4185070;28;20088;-75
2022/12/02 01:18:36;;;;;;;26.65;11.88;;;;;;;-1.66;100.00;99300.06;4202608;28;20492;-75
2022/12/02 01:20:36;;;;;;;27.48;11.32;;;;;;;-1.66;100.00;99295.47;4202220;28;20086;-74
2022/12/02 01:22:37;;;;;;;24.60;11.52;;;;;;;-1.64;100.00;99301.44;4201188;28;20052;-75
2022/12/02 01:24:37;;;;;;;26.02;11.75;;;;;;;-1.65;100.00;99290.88;4202767;28;20040;-75
2022/12/02 01:26:38;;;;;;;24.13;11.27;;;;;;;-1.65;100.00;99294.41;4202752;28;20376;-75
2022/12/02 01:28:38;;;;;;;29.10;11.98;;;;;;;-1.64;100.00;99292.50;4201636;28;20076;-75
2022/12/02 01:30:38;;;;;;;27.13;12.15;;;;;;;-1.62;100.00;99298.44;4202383;28;20415;-75
2022/12/02 01:32:38;;;;;;;25.77;11.30;;;;;;;-1.60;100.00;99304.41;4201472;28;20058;-75
2022/12/02 01:34:40;;;;;;;24.75;11.52;;;;;;;-1.59;100.00;99295.16;4201955;28;20048;-75
2022/12/02 01:36:40;;;;;;;25.88;12.00;;;;;;;-1.59;100.00;99301.41;4202900;28;20097;-75
2022/12/02 01:38:41;;;;;;;30.67;12.52;;;;;;;-1.61;100.00;99302.78;4202331;28;20044;-75
2022/12/02 01:40:41;;;;;;;28.17;12.35;;;;;;;-1.64;100.00;99300.63;4202524;28;20395;-75
2022/12/02 01:42:42;;;;;;;25.35;12.40;;;;;;;-1.66;100.00;99297.38;4202184;28;20327;-75
2022/12/02 01:44:43;;;;;;;30.35;12.10;;;;;;;-1.64;100.00;99300.63;4202652;28;20044;-75
2022/12/02 01:46:43;;;;;;;27.52;12.13;;;;;;;-1.65;100.00;99297.13;4200977;28;20063;-75
2022/12/02 01:48:44;;;;;;;30.50;13.90;;;;;;;-1.63;100.00;99299.53;4201362;28;20379;-75
2022/12/02 01:50:46;;;;;;;26.60;12.65;;;;;;;-1.68;100.00;99292.22;4201463;28;20442;-75
2022/12/02 01:52:46;;;;;;;26.60;11.15;;;;;;;-1.66;100.00;99294.66;4200348;28;20075;-75
2022/12/02 01:54:47;;;;;;;29.38;13.07;;;;;;;-1.70;100.00;99297.94;4202702;28;20281;-75
2022/12/02 01:56:47;;;;;;;27.83;11.60;;;;;;;-1.67;100.00;99290.31;4202416;28;20155;-75
2022/12/02 01:58:48;;;;;;;29.58;11.57;;;;;;;-1.66;100.00;99286.50;4202262;28;20048;-75
2022/12/02 02:00:48;;;;;;;26.17;11.82;;;;;;;-1.68;100.00;99281.38;4202273;28;20067;-75
2022/12/02 02:02:48;;;;;;;24.60;11.30;;;;;;;-1.70;100.00;99286.25;4180081;28;20139;-75
2022/12/02 02:04:49;;;;;;;28.73;13.05;;;;;;;-1.72;100.00;99285.75;4201546;28;20048;-75
2022/12/02 02:06:50;;;;;;;28.25;11.23;;;;;;;-1.68;100.00;99284.06;4202511;28;20087;-74
2022/12/02 02:08:51;;;;;;;28.05;12.57;;;;;;;-1.73;100.00;99282.22;4201714;28;20040;-75
2022/12/02 02:10:51;;;;;;;24.00;11.23;;;;;;;-1.71;100.00;99288.16;4202593;28;20079;-75
2022/12/02 02:12:52;;;;;;;31.00;12.57;;;;;;;-1.73;100.00;99282.22;4201655;28;20051;-75
2022/12/02 02:14:53;;;;;;;28.40;12.13;;;;;;;-1.68;100.00;99283.28;4202455;28;20094;-74
2022/12/02 02:16:53;;;;;;;24.85;11.20;;;;;;;-1.68;100.00;99278.66;4202479;28;20611;-75
2022/12/02 02:18:53;;;;;;;27.75;12.30;;;;;;;-1.68;100.00;99277.84;4201267;28;20174;-75
2022/12/02 02:20:58;;;;;;;27.08;12.52;;;;;;;-1.70;100.00;99275.41;4202079;28;20138;-75
2022/12/02 02:23:06;;;;;;;29.55;11.73;;;;;;;-1.70;100.00;99275.41;4200646;28;20468;-75
2022/12/02 02:25:12;;;;;;;29.00;11.43;;;;;;;-1.71;100.00;99277.31;4184163;28;20044;-75
2022/12/02 02:27:13;;;;;;;26.83;11.88;;;;;;;-1.73;100.00;99268.66;4202477;28;20079;-75
2022/12/02 02:29:13;;;;;;;29.20;12.05;;;;;;;-1.71;100.00;99266.47;4202401;28;20101;-75
2022/12/02 02:31:15;;;;;;;31.92;13.18;;;;;;;-1.70;100.00;99259.13;4201934;28;20118;-75
2022/12/02 02:33:16;;;;;;;30.75;14.15;;;;;;;-1.70;100.00;99264.56;4201665;28;20055;-75
2022/12/02 02:35:18;;;;;;;29.40;12.48;;;;;;;-1.71;100.00;99261.03;4204189;28;20056;-75
2022/12/02 02:37:18;;;;;;;22.40;10.85;;;;;;;-1.71;100.00;99260.22;4205865;28;20377;-75
2022/12/02 02:39:20;;;;;;;25.15;12.70;;;;;;;-1.72;100.00;99262.13;4204934;28;20392;-75
2022/12/02 02:41:21;;;;;;;26.70;11.45;;;;;;;-1.72;100.00;99259.41;4205314;28;20058;-75
2022/12/02 02:43:24;;;;;;;28.35;11.88;;;;;;;-1.73;100.00;99257.81;4203325;28;20387;-75
2022/12/02 02:45:27;;;;;;;26.25;12.13;;;;;;;-1.71;100.00;99261.03;4203351;28;20472;-75
2022/12/02 02:47:28;;;;;;;28.98;12.82;;;;;;;-1.73;100.00;99260.50;4204370;28;20044;-75
2022/12/02 02:49:28;;;;;;;29.52;12.07;;;;;;;-1.70;100.00;99254.53;4205098;28;20040;-75
2022/12/02 02:51:29;;;;;;;30.77;12.77;;;;;;;-1.70;100.00;99261.84;4204968;28;20048;-75
2022/12/02 02:53:29;;;;;;;31.30;11.90;;;;;;;-1.71;100.00;99261.03;4204806;28;20128;-75
2022/12/02 02:55:31;;;;;;;27.73;12.05;;;;;;;-1.72;100.00;99255.91;4205111;28;20480;-75
2022/12/02 02:57:35;;;;;;;24.67;11.68;;;;;;;-1.72;100.00;99254.00;4205327;28;20043;-75
2022/12/02 02:59:39;;;;;;;30.05;12.10;;;;;;;-1.73;100.00;99255.09;4205064;28;20134;-75
2022/12/02 03:01:41;;;;;;;29.60;12.48;;;;;;;-1.70;100.00;99259.94;4204350;28;20040;-75
2022/12/02 03:03:45;;;;;;;31.67;12.97;;;;;;;-1.71;100.00;99255.63;4205117;28;20425;-75
2022/12/02 03:05:48;;;;;;;33.30;13.23;;;;;;;-1.70;100.00;99251.00;4204967;28;20276;-75
2022/12/02 03:07:49;;;;;;;28.38;11.82;;;;;;;-1.71;100.00;99252.91;4205297;28;20133;-75
2022/12/02 03:09:51;;;;;;;27.27;11.93;;;;;;;-1.68;100.00;99251.53;4204692;28;20113;-75
2022/12/02 03:11:53;;;;;;;30.85;12.75;;;;;;;-1.68;100.00;99243.38;4204893;28;20527;-75
2022/12/02 03:13:56;;;;;;;31.25;13.27;;;;;;;-1.69;100.00;99244.47;4204147;28;20052;-75
2022/12/02 03:15:56;;;;;;;27.25;11.98;;;;;;;-1.70;100.00;99242.84;4204386;28;20083;-75
2022/12/02 03:17:57;;;;;;;30.33;13.18;;;;;;;-1.70;100.00;99243.66;4204337;28;20407;-75
2022/12/02 03:19:57;;;;;;;27.20;11.82;;;;;;;-1.71;100.00;99239.34;4204685;28;20048;-75
2022/12/02 03:21:59;;;;;;;27.77;12.48;;;;;;;-1.71;100.00;99241.22;4204806;28;20047;-75
2022/12/02 03:24:02;;;;;;;30.90;12.75;;;;;;;-1.71;100.00;99239.34;4185537;28;20067;-75
2022/12/02 03:26:03;;;;;;;26.08;12.20;;;;;;;-1.71;100.00;99239.34;4204238;28;20115;-75
2022/12/02 03:28:04;;;;;;;29.58;12.77;;;;;;;-1.72;100.00;99237.72;4204262;28;20374;-75
2022/12/02 03:30:05;;;;;;;27.13;12.18;;;;;;;-1.73;100.00;99230.66;4204575;28;20052;-75
2022/12/02 03:32:09;;;;;;;30.10;13.20;;;;;;;-1.73;100.00;99246.94;4204128;28;20036;-75
2022/12/02 03:34:10;;;;;;;33.00;13.10;;;;;;;-1.74;100.00;99233.63;4202745;28;20055;-74
2022/12/02 03:36:11;;;;;;;28.50;12.43;;;;;;;-1.73;100.00;99232.56;4204595;28;20028;-75
2022/12/02 03:38:12;;;;;;;28.35;12.38;;;;;;;-1.73;100.00;99233.38;4204547;28;20036;-75
2022/12/02 03:40:12;;;;;;;27.70;13.00;;;;;;;-1.73;100.00;99227.16;4202664;28;20020;-75
2022/12/02 03:42:13;;;;;;;28.13;11.85;;;;;;;-1.72;100.00;99231.47;4203978;28;20052;-75
2022/12/02 03:44:14;;;;;;;26.40;11.38;;;;;;;-1.73;100.00;99229.84;4202939;28;20605;-75
2022/12/02 03:46:15;;;;;;;31.37;12.87;;;;;;;-1.76;100.00;99233.91;4203097;28;20027;-75
2022/12/02 03:48:20;;;;;;;28.75;12.25;;;;;;;-1.77;100.00;99226.88;4204651;28;20764;-75
2022/12/02 03:50:21;;;;;;;29.70;12.32;;;;;;;-1.75;100.00;99232.81;4204091;28;20543;-75
2022/12/02 03:52:22;;;;;;;31.23;12.32;;;;;;;-1.75;100.00;99224.69;4204212;28;20048;-75
2022/12/02 03:54:22;;;;;;;27.20;11.98;;;;;;;-1.78;100.00;99219.84;4185721;28;20394;-75
2022/12/02 03:56:22;;;;;;;30.90;13.35;;;;;;;-1.79;100.00;99218.22;4203861;28;20096;-75
2022/12/02 03:58:45;;;;;;;28.27;12.95;;;;;;;-1.78;100.00;99227.97;4204184;28;20122;-75
2022/12/02 04:00:46;;;;;;;24.95;11.68;;;;;;;-1.79;100.00;99211.97;4203712;28;20040;-75
2022/12/02 04:02:46;;;;;;;27.95;12.95;;;;;;;-1.80;100.00;99218.50;4203446;28;20479;-75
2022/12/02 04:04:46;;;;;;;29.42;12.68;;;;;;;-1.80;100.00;99218.50;4204028;28;20472;-75
2022/12/02 04:06:46;;;;;;;31.10;12.75;;;;;;;-1.80;100.00;99215.78;4204035;28;20048;-75
2022/12/02 04:08:47;;;;;;;27.80;12.25;;;;;;;-1.82;100.00;99209.81;4203848;28;20036;-75
2022/12/02 04:10:47;;;;;;;27.77;12.82;;;;;;;-1.85;100.00;99204.94;4200947;28;20044;-75
2022/12/02 04:12:48;;;;;;;26.73;11.38;;;;;;;-1.83;100.00;99209.00;4201236;28;20056;-75
2022/12/02 04:14:48;;;;;;;24.52;11.57;;;;;;;-1.85;100.00;99211.19;4203266;28;20430;-74
2022/12/02 04:16:48;;;;;;;26.08;11.75;;;;;;;-1.83;100.00;99213.59;4202615;28;20056;-75
2022/12/02 04:18:49;;;;;;;25.65;11.35;;;;;;;-1.81;100.00;99211.44;4199368;28;20123;-75
2022/12/02 04:20:49;;;;;;;25.75;11.65;;;;;;;-1.84;100.00;99203.84;4193721;28;20051;-75
2022/12/02 04:22:49;;;;;;;27.92;11.77;;;;;;;-1.83;100.00;99200.03;4196364;28;20478;-75
2022/12/02 04:24:50;;;;;;;26.17;11.25;;;;;;;-1.85;100.00;99197.63;4199612;28;21132;-75
2022/12/02 04:26:50;;;;;;;26.13;10.43;;;;;;;-1.85;100.00;99194.09;4202398;28;20164;-75
2022/12/02 04:28:50;;;;;;;23.50;11.05;;;;;;;-1.84;100.00;99193.00;4200401;28;20388;-75
2022/12/02 04:30:51;;;;;;;27.55;11.43;;;;;;;-1.85;100.00;99191.38;4202220;28;20341;-75
2022/12/02 04:32:51;;;;;;;23.45;10.52;;;;;;;-1.83;100.00;99200.03;4201774;28;20318;-75
2022/12/02 04:34:51;;;;;;;27.50;11.27;;;;;;;-1.84;100.00;99198.44;4196754;28;20044;-75
2022/12/02 04:36:52;;;;;;;29.30;12.43;;;;;;;-1.85;100.00;99196.81;4195588;28;20426;-75
2022/12/02 04:38:52;;;;;;;23.50;10.82;;;;;;;-1.86;100.00;99198.72;4198905;28;20096;-75
2022/12/02 04:40:52;;;;;;;25.58;11.15;;;;;;;-1.87;100.00;99188.16;4202035;28;20392;-75
2022/12/02 04:42:53;;;;;;;25.92;11.15;;;;;;;-1.88;100.00;99190.06;4201334;28;20443;-75
2022/12/02 04:44:53;;;;;;;26.15;12.63;;;;;;;-1.85;100.00;99188.66;4201695;28;20043;-75
2022/12/02 04:46:53;;;;;;;20.00;9.40;;;;;;;-1.86;100.00;99187.84;4202706;28;20048;-75
2022/12/02 04:48:54;;;;;;;23.58;11.52;;;;;;;-1.85;100.00;99183.25;4202520;28;20127;-75
2022/12/02 04:50:54;;;;;;;27.20;11.45;;;;;;;-1.85;100.00;99181.34;4202234;28;20101;-75
2022/12/02 04:52:54;;;;;;;24.95;11.05;;;;;;;-1.85;100.00;99184.06;4202080;28;20192;-75
2022/12/02 04:54:54;;;;;;;23.63;10.77;;;;;;;-1.87;100.00;99175.38;4202196;28;20044;-75
2022/12/02 04:56:55;;;;;;;26.00;12.10;;;;;;;-1.85;100.00;99184.06;4203118;28;20527;-75
2022/12/02 04:58:55;;;;;;;27.35;11.80;;;;;;;-1.83;100.00;99181.06;4202876;28;20211;-75
2022/12/02 05:00:56;;;;;;;30.98;13.50;;;;;;;-1.86;100.00;99184.34;4202765;28;20046;-75
2022/12/02 05:02:56;;;;;;;31.67;12.27;;;;;;;-1.84;100.00;99190.28;4201010;28;20059;-75
2022/12/02 05:04:56;;;;;;;27.77;12.73;;;;;;;-1.85;100.00;99186.78;4202460;28;20078;-75
2022/12/02 05:06:56;;;;;;;25.92;11.07;;;;;;;-1.86;100.00;99187.84;4201330;28;20127;-75
2022/12/02 05:08:57;;;;;;;33.17;12.35;;;;;;;-1.86;100.00;99182.44;4203055;28;20137;-75
2022/12/02 05:10:57;;;;;;;28.80;12.63;;;;;;;-1.89;100.00;99183.00;4202748;28;20489;-75
2022/12/02 05:12:58;;;;;;;30.27;12.98;;;;;;;-1.85;100.00;99183.25;4202132;28;20044;-75
2022/12/02 05:14:58;;;;;;;27.20;12.52;;;;;;;-1.85;100.00;99184.06;4200114;28;20070;-75
2022/12/02 05:16:59;;;;;;;28.98;12.50;;;;;;;-1.88;100.00;99187.34;4200824;28;20044;-75
2022/12/02 05:18:59;;;;;;;29.05;13.38;;;;;;;-1.90;100.00;99178.69;4202952;28;20149;-75
2022/12/02 05:20:59;;;;;;;27.10;12.30;;;;;;;-1.87;100.00;99190.84;4202062;28;20776;-75
2022/12/02 05:22:59;;;;;;;30.17;13.60;;;;;;;-1.90;100.00;99177.84;4201269;28;20114;-75
2022/12/02 05:25:00;;;;;;;26.67;11.98;;;;;;;-1.89;100.00;99180.28;4202274;28;20044;-75
2022/12/02 05:27:00;;;;;;;27.20;12.05;;;;;;;-1.89;100.00;99172.16;4201476;28;20105;-75
2022/12/02 05:29:01;;;;;;;27.33;12.85;;;;;;;-1.89;100.00;99184.91;4200574;28;20044;-74
2022/12/02 05:31:01;;;;;;;24.67;11.35;;;;;;;-1.90;100.00;99181.38;4201617;28;20559;-74
2022/12/02 05:33:01;;;;;;;29.60;12.48;;;;;;;-1.90;100.00;99177.84;4201386;28;20093;-75
2022/12/02 05:35:02;;;;;;;29.90;13.38;;;;;;;-1.90;100.00;99178.69;4201770;28;20218;-75
2022/12/02 05:37:02;;;;;;;24.75;11.55;;;;;;;-1.90;100.00;99175.13;4202045;28;20101;-75
2022/12/02 05:39:03;;;;;;;25.63;11.95;;;;;;;-1.89;100.00;99184.91;4202577;28;20468;-75
2022/12/02 05:41:03;;;;;;;28.52;12.23;;;;;;;-1.88;100.00;99178.38;4201446;28;20047;-75
2022/12/02 05:43:35;;;;;;;27.42;11.35;;;;;;;-1.87;100.00;99180.00;4200662;28;20130;-75
2022/12/02 05:45:36;;;;;;;25.30;10.55;;;;;;;-1.92;100.00;99174.59;4199953;28;20075;-75
2022/12/02 05:47:37;;;;;;;25.02;11.93;;;;;;;-1.91;100.00;99173.50;4202306;28;20036;-75
2022/12/02 05:49:38;;;;;;;24.73;12.55;;;;;;;-1.90;100.00;99178.69;4200161;28;20050;-75
2022/12/02 05:51:38;;;;;;;24.27;11.60;;;;;;;-1.89;100.00;99171.34;4200400;28;20526;-75
2022/12/02 05:53:40;;;;;;;24.92;11.32;;;;;;;-1.91;100.00;99168.09;4198230;28;20127;-75
2022/12/02 05:55:41;;;;;;;28.05;11.90;;;;;;;-1.92;100.00;99167.28;4141698;27;20091;-75
2022/12/02 05:57:41;;;;;;;25.05;11.75;;;;;;;-1.88;100.00;99168.34;4201808;28;20059;-75
2022/12/02 05:59:42;;;;;;;21.65;11.38;;;;;;;-1.89;100.00;99176.78;4201520;28;20109;-75
2022/12/02 06:01:47;;;;;;;21.05;9.80;;;;;;;-1.87;100.00;99180.81;4202717;28;20443;-75
2022/12/02 06:03:49;;;;;;;21.88;10.00;;;;;;;-1.89;100.00;99177.59;4202704;28;20035;-75
2022/12/02 06:05:52;;;;;;;21.98;9.40;;;;;;;-1.89;100.00;99174.06;4184376;28;20044;-75
2022/12/02 06:07:55;;;;;;;19.85;10.13;;;;;;;-1.89;100.00;99176.78;4201281;28;20185;-75
2022/12/02 06:09:55;;;;;;;22.95;10.88;;;;;;;-1.93;100.00;99179.22;4203431;28;20138;-75
2022/12/02 06:11:56;;;;;;;22.52;10.88;;;;;;;-1.92;100.00;99180.03;4203095;28;20040;-75
2022/12/02 06:14:00;;;;;;;24.65;10.90;;;;;;;-1.89;100.00;99179.47;4204671;28;20101;-75
2022/12/02 06:16:00;;;;;;;22.35;10.82;;;;;;;-1.91;100.00;99170.78;4204697;28;20044;-75
2022/12/02 06:18:02;;;;;;;23.13;10.80;;;;;;;-1.90;100.00;99173.25;4205825;28;20331;-75
2022/12/02 06:20:04;;;;;;;22.30;10.68;;;;;;;-1.92;100.00;99169.19;4204843;28;20059;-75
2022/12/02 06:22:12;;;;;;;21.35;10.18;;;;;;;-1.91;100.00;99178.94;4205782;28;20036;-75
2022/12/02 06:24:12;;;;;;;26.13;10.57;;;;;;;-1.90;100.00;99172.41;4204754;28;20040;-75
2022/12/02 06:26:17;;;;;;;22.70;10.40;;;;;;;-1.90;100.00;99175.97;4205008;28;20345;-74
2022/12/02 06:28:29;;;;;;;23.02;10.95;;;;;;;-1.90;100.00;99172.41;4205123;28;20028;-75
2022/12/02 06:30:29;;;;;;;23.23;10.45;;;;;;;-1.93;100.00;99178.41;4205301;28;20051;-75
2022/12/02 06:32:38;;;;;;;22.15;10.02;;;;;;;-1.93;100.00;99179.22;4202627;28;20051;-74
2022/12/02 06:34:41;;;;;;;21.73;10.40;;;;;;;-1.93;100.00;99179.22;4204295;28;20044;-75
2022/12/02 06:36:41;;;;;;;20.33;10.40;;;;;;;-1.92;100.00;99182.75;4205191;28;20538;-75
2022/12/02 06:38:50;;;;;;;25.80;11.93;;;;;;;-1.92;100.00;99185.44;4204769;28;20113;-75
2022/12/02 06:40:50;;;;;;;22.00;10.32;;;;;;;-1.90;100.00;99185.97;4203865;28;20051;-75
2022/12/02 06:42:51;;;;;;;22.70;10.25;;;;;;;-1.90;100.00;99183.25;4203716;28;20404;-75
2022/12/02 06:45:03;;;;;;;19.85;9.55;;;;;;;-1.93;100.00;99175.69;4204880;28;20472;-75
2022/12/02 06:47:46;;;;;;;22.08;10.18;;;;;;;-1.93;100.00;99175.69;4206452;28;20082;-74
2022/12/02 06:49:46;;;;;;;19.33;8.88;;;;;;;-1.95;100.00;99177.88;4190232;28;20039;-75
2022/12/02 06:51:56;;;;;;;23.23;10.57;;;;;;;-1.93;100.00;99181.13;4204840;28;20036;-75
2022/12/02 06:53:56;;;;;;;20.70;9.10;;;;;;;-1.93;100.00;99176.50;4203237;28;20139;-74
2022/12/02 06:56:04;;;;;;;19.50;9.55;;;;;;;-1.94;100.00;99177.59;4204558;28;20114;-75
2022/12/02 06:58:26;;;;;;;19.90;9.00;;;;;;;-1.96;100.00;99181.69;4204790;28;20403;-74
2022/12/02 07:00:27;;;;;;;21.17;9.95;;;;;;;-1.97;100.00;99178.16;4205401;28;20048;-75
2022/12/02 07:02:30;;;;;;;24.80;9.90;;;;;;;-1.98;100.00;99171.94;4204289;28;20396;-75
2022/12/02 07:04:42;;;;;;;20.17;9.38;;;;;;;-1.95;100.00;99175.97;4204752;28;20043;-75
2022/12/02 07:06:44;;;;;;;16.77;8.95;;;;;;;-1.95;100.00;99173.25;4204881;28;20046;-74
2022/12/02 07:08:46;;;;;;;22.23;10.57;;;;;;;-1.96;100.00;99168.94;4204702;28;20044;-75
2022/12/02 07:10:47;;;;;;;27.60;11.88;;;;;;;-1.92;100.00;99163.75;4203719;28;20428;-75
2022/12/02 07:12:48;;;;;;;21.98;10.55;;;;;;;-1.91;100.00;99174.31;4204498;28;20081;-74
2022/12/02 07:14:56;;;;;;;20.77;11.00;;;;;;;-1.88;100.00;99171.06;4204718;28;20087;-74
2022/12/02 07:17:15;;;;;;;19.13;8.88;;;;;;;-1.92;100.00;99164.56;4203410;28;20134;-75
2022/12/02 07:19:21;;;;;;;22.58;9.95;;;;;;;-1.89;100.00;99180.28;4204672;28;20606;-74
2022/12/02 07:21:21;;;;;;;19.45;9.77;;;;;;;-1.89;100.00;99183.00;4203674;28;20494;-75
2022/12/02 07:23:25;;;;;;;21.02;9.90;;;;;;;-1.91;100.00;99181.63;4204222;28;20044;-75
2022/12/02 07:25:31;;;;;;;22.00;9.23;;;;;;;-1.90;100.00;99181.38;4186551;28;20036;-75
2022/12/02 07:27:35;;;;;;;22.05;10.70;;;;;;;-1.88;100.00;99178.38;4205029;28;20044;-75
2022/12/02 07:29:35;;;;;;;17.05;9.35;;;;;;;-1.87;100.00;99174.59;4204207;28;20055;-75
2022/12/02 07:31:37;;;;;;;20.58;10.25;;;;;;;-1.89;100.00;99174.06;4186555;28;20040;-75
2022/12/02 07:33:37;;;;;;;18.30;9.13;;;;;;;-1.89;100.00;99176.78;4204115;28;20089;-75
2022/12/02 07:35:37;;;;;;;19.83;10.18;;;;;;;-1.90;100.00;99170.53;4204401;28;20539;-75
2022/12/02 07:37:38;;;;;;;21.75;9.63;;;;;;;-1.86;100.00;99170.78;4204445;28;20664;-75
2022/12/02 07:39:38;;;;;;;18.88;9.88;;;;;;;-1.81;100.00;99165.34;4203911;28;20177;-75
2022/12/02 07:41:38;;;;;;;20.65;8.75;;;;;;;-1.85;100.00;99165.06;4204852;28;20127;-75
2022/12/02 07:43:39;;;;;;;21.60;11.02;;;;;;;-1.86;100.00;99173.50;4203668;28;20044;-75
2022/12/02 07:45:39;;;;;;;31.85;19.48;;;;;;;-1.85;100.00;99173.22;4204233;28;20486;-75
2022/12/02 07:47:39;;;;;;;20.52;9.88;;;;;;;-1.84;100.00;99163.16;4204977;28;20561;-75
2022/12/02 07:49:40;;;;;;;20.75;9.98;;;;;;;-1.82;100.00;99169.13;4203882;28;20040;-75
2022/12/02 07:51:40;;;;;;;20.30;11.02;;;;;;;-1.82;100.00;99171.81;4204210;28;20461;-75
2022/12/02 07:53:40;;;;;;;18.15;9.63;;;;;;;-1.85;100.00;99162.34;4203549;28;20122;-75
2022/12/02 07:55:41;;;;;;;18.40;9.25;;;;;;;-1.81;100.00;99165.34;4204458;28;20131;-75
2022/12/02 07:57:41;;;;;;;18.98;9.60;;;;;;;-1.81;100.00;99166.16;4203889;28;20082;-75
2022/12/02 07:59:41;;;;;;;21.85;10.05;;;;;;;-1.83;100.00;99168.31;4204345;28;20055;-75
2022/12/02 08:01:44;;;;;;;18.52;9.82;;;;;;;-1.81;100.00;99163.44;4204263;28;20040;-75
2022/12/02 08:03:44;;;;;;;17.77;9.77;;;;;;;-1.78;100.00;99176.41;4186030;28;20426;-75
2022/12/02 08:05:44;;;;;;;16.60;9.20;;;;;;;-1.78;100.00;99172.91;4203927;28;20055;-75
2022/12/02 08:07:45;;;;;;;19.42;9.98;;;;;;;-1.78;100.00;99162.06;4203987;28;20375;-75
2022/12/02 08:09:45;;;;;;;23.33;13.00;;;;;;;-1.75;100.00;99161.47;4203892;28;20075;-74
2022/12/02 08:11:45;;;;;;;18.77;10.32;;;;;;;-1.73;100.00;99164.75;4203768;28;20492;-75
2022/12/02 08:13:46;;;;;;;20.83;10.77;;;;;;;-1.77;100.00;99155.53;4203644;28;20080;-75
2022/12/02 08:15:46;;;;;;;16.75;9.05;;;;;;;-1.72;100.00;99161.75;4203490;28;20044;-75
2022/12/02 08:17:46;;;;;;;19.02;9.05;;;;;;;-1.72;100.00;99167.16;4203721;28;20036;-75
2022/12/02 08:19:47;;;;;;;21.67;10.82;;;;;;;-1.74;100.00;99169.38;4204067;28;20059;-75
2022/12/02 08:21:48;;;;;;;18.55;9.35;;;;;;;-1.74;100.00;99157.66;4203727;28;20078;-75
2022/12/02 08:23:48;;;;;;;20.80;10.25;;;;;;;-1.70;100.00;99150.59;4202855;28;20478;-75
2022/12/02 08:25:49;;;;;;;21.20;11.05;;;;;;;-1.67;100.00;99160.06;4204076;28;20415;-75
2022/12/02 08:27:49;;;;;;;19.05;9.98;;;;;;;-1.66;100.00;99157.06;4203789;28;20081;-75
2022/12/02 08:29:50;;;;;;;21.27;9.63;;;;;;;-1.63;100.00;99161.16;4203428;28;20093;-75
2022/12/02 08:31:50;;;;;;;19.27;10.57;;;;;;;-1.62;100.00;99160.06;4203066;28;20092;-75
2022/12/02 08:33:51;;;;;;;17.35;9.50;;;;;;;-1.58;100.00;99159.19;4202911;28;20056;-75
2022/12/02 08:35:51;;;;;;;23.10;11.07;;;;;;;-1.58;100.00;99161.91;4202912;28;20249;-75
2022/12/02 08:37:52;;;;;;;19.27;10.15;;;;;;;-1.58;100.00;99156.47;4203763;28;20369;-74
2022/12/02 08:39:52;;;;;;;17.23;9.95;;;;;;;-1.55;100.00;99163.28;4203220;28;20472;-75
2022/12/02 08:41:52;;;;;;;21.80;11.70;;;;;;;-1.55;100.00;99161.38;4203823;28;20128;-75
2022/12/02 08:43:53;;;;;;;20.67;10.80;;;;;;;-1.57;100.00;99157.28;4202511;28;20042;-75
2022/12/02 08:45:53;;;;;;;19.13;10.63;;;;;;;-1.55;100.00;99158.66;4203144;28;20072;-74
2022/12/02 08:47:54;;;;;;;24.30;11.63;;;;;;;-1.52;100.00;99163.50;4204495;28;20127;-75
2022/12/02 08:49:54;;;;;;;21.35;10.68;;;;;;;-1.51;100.00;99156.16;4202655;28;20036;-75
2022/12/02 08:51:55;;;;;;;22.58;11.52;;;;;;;-1.54;100.00;99152.13;4203033;28;20077;-74
2022/12/02 08:53:55;;;;;;;22.05;11.85;;;;;;;-1.50;100.00;99160.50;4202690;28;20039;-74
2022/12/02 08:55:55;;;;;;;22.00;10.18;;;;;;;-1.48;100.00;99156.44;4202948;28;20036;-75
2022/12/02 08:57:56;;;;;;;22.63;11.65;;;;;;;-1.48;100.00;99153.72;4203308;28;20460;-75
2022/12/02 08:59:56;;;;;;;20.02;10.90;;;;;;;-1.47;100.00;99163.47;4202856;28;20072;-75
2022/12/02 09:01:56;;;;;;;38.90;17.90;;;;;;;-1.44;100.00;99170.25;4203187;28;20111;-75
2022/12/02 09:03:57;;;;;;;21.45;11.50;;;;;;;-1.44;100.00;99159.38;4202545;28;20111;-75
2022/12/02 09:05:57;;;;;;;37.83;19.23;;;;;;;-1.42;100.00;99165.31;4202550;28;20317;-75
2022/12/02 09:07:57;;;;;;;25.70;11.30;;;;;;;-1.39;100.00;99167.50;4203382;28;20051;-74
2022/12/02 09:09:58;;;;;;;21.88;11.10;;;;;;;-1.39;100.00;99158.53;4202897;28;20048;-75
2022/12/02 09:11:58;;;;;;;21.83;11.50;;;;;;;-1.38;100.00;99158.25;4203102;28;20072;-75
2022/12/02 09:13:59;;;;;;;18.67;10.43;;;;;;;-1.35;100.00;99157.69;4202615;28;20484;-74
2022/12/02 09:15:59;;;;;;;23.50;12.23;;;;;;;-1.37;100.00;99157.16;4202553;28;20047;-75